createdAt,value
2023-04-15T00:02:20.404Z,9.60
2023-04-15T00:04:49.853Z,9.58
2023-04-15T00:07:18.601Z,9.61
2023-04-15T00:09:47.164Z,9.63
2023-04-15T00:12:15.659Z,9.66
2023-04-15T00:14:45.361Z,9.66
2023-04-15T00:17:14.324Z,9.69
2023-04-15T00:20:08.603Z,9.69
2023-04-15T00:22:37.124Z,9.69
2023-04-15T00:25:05.860Z,9.68
2023-04-15T00:27:52.067Z,9.67
2023-04-15T00:30:21.181Z,9.66
2023-04-15T00:32:49.861Z,9.68
2023-04-15T00:35:20.991Z,9.71
2023-04-15T00:37:49.359Z,9.75
2023-04-15T00:40:19.887Z,9.75
2023-04-15T00:42:48.556Z,9.74
2023-04-15T00:45:17.366Z,9.72
2023-04-15T00:47:46.086Z,9.72
2023-04-15T00:50:15.838Z,9.68
2023-04-15T00:52:44.350Z,9.63
2023-04-15T00:55:13.243Z,9.56
2023-04-15T00:57:41.825Z,9.45
2023-04-15T01:00:12.210Z,9.30
2023-04-15T01:02:41.404Z,9.16
2023-04-15T01:05:10.437Z,9.06
2023-04-15T01:07:38.832Z,8.99
2023-04-15T01:10:09.354Z,8.91
2023-04-15T01:12:38.236Z,8.85
2023-04-15T01:15:08.359Z,8.80
2023-04-15T01:17:37.753Z,8.75
2023-04-15T01:20:12.801Z,8.69
2023-04-15T01:22:41.685Z,8.63
2023-04-15T01:25:33.824Z,8.59
2023-04-15T01:28:02.598Z,8.57
2023-04-15T01:30:34.936Z,8.55
2023-04-15T01:33:03.507Z,8.52
2023-04-15T01:35:32.556Z,8.46
2023-04-15T01:38:10.661Z,8.44
2023-04-15T01:40:39.838Z,8.44
2023-04-15T01:43:08.434Z,8.45
2023-04-15T01:45:37.229Z,8.45
2023-04-15T01:48:07.314Z,8.43
2023-04-15T01:50:40.038Z,8.42
2023-04-15T01:53:08.915Z,8.44
2023-04-15T01:56:02.607Z,8.45
2023-04-15T01:58:31.786Z,8.47
2023-04-15T02:01:00.218Z,8.50
2023-04-15T02:03:29.916Z,8.50
2023-04-15T02:05:58.973Z,8.51
2023-04-15T02:08:27.865Z,8.51
2023-04-15T02:10:56.256Z,8.52
2023-04-15T02:13:24.822Z,8.55
2023-04-15T02:15:55.859Z,8.57
2023-04-15T02:18:24.253Z,8.59
2023-04-15T02:20:53.449Z,8.62
2023-04-15T02:23:21.834Z,8.60
2023-04-15T02:25:53.580Z,8.60
2023-04-15T02:28:22.790Z,8.60
2023-04-15T02:30:53.554Z,8.61
2023-04-15T02:33:22.408Z,8.63
2023-04-15T02:35:51.198Z,8.64
2023-04-15T02:38:19.918Z,8.65
2023-04-15T02:40:51.281Z,8.66
2023-04-15T02:43:20.897Z,8.67
2023-04-15T02:45:49.858Z,8.68
2023-04-15T02:48:20.425Z,8.70
2023-04-15T02:50:49.047Z,8.71
2023-04-15T02:53:18.140Z,8.75
2023-04-15T02:55:46.824Z,8.75
2023-04-15T02:58:20.485Z,8.77
2023-04-15T03:00:51.191Z,8.75
2023-04-15T03:03:19.635Z,8.75
2023-04-15T03:05:53.440Z,8.75
2023-04-15T03:08:22.575Z,8.77
2023-04-15T03:10:53.374Z,8.83
2023-04-15T03:13:24.630Z,8.81
2023-04-15T03:15:53.340Z,8.83
2023-04-15T03:18:26.410Z,8.86
2023-04-15T03:20:55.609Z,8.88
2023-04-15T03:23:25.747Z,8.92
2023-04-15T03:25:59.312Z,8.97
2023-04-15T03:28:29.945Z,8.95
2023-04-15T03:30:59.784Z,8.94
2023-04-15T03:33:28.444Z,8.96
2023-04-15T03:35:57.333Z,8.97
2023-04-15T03:38:25.804Z,8.98
2023-04-15T03:40:54.392Z,8.98
2023-04-15T03:43:22.767Z,9.01
2023-04-15T03:45:51.565Z,9.03
2023-04-15T03:48:19.981Z,9.06
2023-04-15T03:50:48.829Z,9.12
2023-04-15T03:53:17.211Z,9.11
2023-04-15T03:55:51.357Z,9.13
2023-04-15T03:58:20.929Z,9.13
2023-04-15T04:00:52.374Z,9.15
2023-04-15T04:03:21.745Z,9.17
2023-04-15T04:05:51.792Z,9.19
2023-04-15T04:08:23.162Z,9.24
2023-04-15T04:10:51.843Z,9.27
2023-04-15T04:13:21.652Z,9.32
2023-04-15T04:15:50.992Z,9.36
2023-04-15T04:18:19.623Z,9.40
2023-04-15T04:20:52.525Z,9.42
2023-04-15T04:23:20.892Z,9.46
2023-04-15T04:25:49.799Z,9.48
2023-04-15T04:28:19.251Z,9.51
2023-04-15T04:30:48.688Z,9.54
2023-04-15T04:33:17.325Z,9.61
2023-04-15T04:35:46.977Z,9.66
2023-04-15T04:38:15.870Z,9.68
2023-04-15T04:40:45.016Z,9.69
2023-04-15T04:43:14.395Z,9.65
2023-04-15T04:45:43.305Z,9.67
2023-04-15T04:48:12.579Z,9.71
2023-04-15T04:51:10.847Z,9.74
2023-04-15T04:53:39.429Z,9.80
2023-04-15T04:56:07.904Z,9.86
2023-04-15T04:58:36.488Z,9.89
2023-04-15T05:01:04.992Z,9.91
2023-04-15T05:03:59.248Z,9.97
2023-04-15T05:06:28.133Z,10.04
2023-04-15T05:08:58.769Z,10.10
2023-04-15T05:11:27.156Z,10.20
2023-04-15T05:14:29.659Z,10.29
2023-04-15T05:17:06.245Z,10.42
2023-04-15T05:19:35.907Z,10.54
2023-04-15T05:22:04.497Z,10.66
2023-04-15T05:24:35.167Z,10.82
2023-04-15T05:27:04.530Z,10.92
2023-04-15T05:29:33.633Z,11.05
2023-04-15T05:32:02.613Z,11.13
2023-04-15T05:34:33.247Z,11.20
2023-04-15T05:37:01.709Z,11.25
2023-04-15T05:39:31.348Z,11.32
2023-04-15T05:42:01.410Z,11.43
2023-04-15T05:44:30.267Z,11.31
2023-04-15T05:46:59.904Z,11.24
2023-04-15T05:49:57.305Z,11.21
2023-04-15T05:52:26.101Z,11.17
2023-04-15T05:55:39.950Z,11.12
2023-04-15T05:58:14.470Z,11.08
2023-04-15T06:00:44.218Z,11.05
2023-04-15T06:03:13.059Z,11.07
2023-04-15T06:05:41.548Z,11.11
2023-04-15T06:08:09.955Z,11.22
2023-04-15T06:10:39.904Z,11.27
2023-04-15T06:13:08.839Z,11.35
2023-04-15T06:15:53.223Z,11.39
2023-04-15T06:18:22.595Z,11.40
2023-04-15T06:20:52.001Z,11.45
2023-04-15T06:23:20.470Z,11.48
2023-04-15T06:25:49.884Z,11.57
2023-04-15T06:28:18.665Z,11.58
2023-04-15T06:30:47.472Z,11.61
2023-04-15T06:33:16.259Z,11.69
2023-04-15T06:35:46.120Z,11.82
2023-04-15T06:38:15.059Z,11.95
2023-04-15T06:40:43.751Z,12.18
2023-04-15T06:43:13.465Z,12.21
2023-04-15T06:45:42.376Z,12.27
2023-04-15T06:48:11.361Z,12.24
2023-04-15T06:50:41.056Z,12.38
2023-04-15T06:53:09.921Z,12.48
2023-04-15T06:55:42.751Z,12.54
2023-04-15T06:58:11.798Z,12.68
2023-04-15T07:00:40.946Z,12.78
2023-04-15T07:03:11.466Z,12.91
2023-04-15T07:05:40.135Z,12.93
2023-04-15T07:08:19.073Z,12.93
2023-04-15T07:10:52.119Z,12.94
2023-04-15T07:13:24.289Z,13.04
2023-04-15T07:15:53.698Z,13.10
2023-04-15T07:18:24.945Z,13.11
2023-04-15T07:20:55.187Z,13.26
2023-04-15T07:23:34.519Z,13.37
2023-04-15T07:26:11.393Z,13.63
2023-04-15T07:28:40.777Z,13.66
2023-04-15T07:31:09.816Z,13.52
2023-04-15T07:33:38.467Z,13.55
2023-04-15T07:36:10.066Z,13.54
2023-04-15T07:38:40.362Z,13.50
2023-04-15T07:41:09.945Z,13.51
2023-04-15T07:43:45.590Z,13.48
2023-04-15T07:46:14.219Z,13.44
2023-04-15T07:48:42.884Z,13.53
2023-04-15T07:51:13.401Z,13.55
2023-04-15T07:53:42.697Z,13.51
2023-04-15T07:56:11.689Z,13.49
2023-04-15T07:58:40.568Z,13.42
2023-04-15T08:01:09.911Z,13.14
2023-04-15T08:03:40.566Z,13.40
2023-04-15T08:06:12.785Z,13.14
2023-04-15T08:09:31.028Z,12.94
2023-04-15T08:11:59.910Z,12.87
2023-04-15T08:14:31.540Z,12.91
2023-04-15T08:17:01.889Z,12.79
2023-04-15T08:19:31.090Z,12.68
2023-04-15T08:21:59.579Z,12.69
2023-04-15T08:24:28.252Z,12.82
2023-04-15T08:26:59.194Z,12.74
2023-04-15T08:29:28.014Z,12.64
2023-04-15T08:31:57.112Z,12.66
2023-04-15T08:34:25.974Z,12.73
2023-04-15T08:36:54.862Z,12.85
2023-04-15T08:39:23.644Z,12.89
2023-04-15T08:42:02.799Z,12.76
2023-04-15T08:44:34.929Z,12.67
2023-04-15T08:47:08.002Z,12.69
2023-04-15T08:49:41.947Z,12.66
2023-04-15T08:52:11.139Z,12.77
2023-04-15T08:54:40.452Z,12.81
2023-04-15T08:57:10.592Z,12.82
2023-04-15T08:59:40.380Z,12.89
2023-04-15T09:02:09.734Z,12.98
2023-04-15T09:04:38.224Z,13.04
2023-04-15T09:07:08.579Z,13.00
2023-04-15T09:10:03.451Z,13.09
2023-04-15T09:12:37.023Z,13.14
2023-04-15T09:15:06.707Z,13.19
2023-04-15T09:17:35.957Z,13.14
2023-04-15T09:20:19.092Z,13.26
2023-04-15T09:22:50.230Z,13.20
2023-04-15T09:25:25.181Z,13.19
2023-04-15T09:28:02.256Z,13.04
2023-04-15T09:30:31.216Z,13.12
2023-04-15T09:33:11.552Z,13.19
2023-04-15T09:36:06.021Z,13.05
2023-04-15T09:38:34.728Z,13.12
2023-04-15T09:41:03.897Z,13.20
2023-04-15T09:43:40.513Z,13.25
2023-04-15T09:46:08.990Z,13.20
2023-04-15T09:48:38.053Z,13.22
2023-04-15T09:51:06.926Z,13.43
2023-04-15T09:53:37.627Z,13.36
2023-04-15T09:56:10.798Z,13.39
2023-04-15T09:58:39.743Z,13.50
2023-04-15T10:01:35.077Z,13.73
2023-04-15T10:04:48.249Z,13.78
2023-04-15T10:07:24.505Z,13.81
2023-04-15T10:10:18.639Z,13.94
2023-04-15T10:12:48.546Z,13.77
2023-04-15T10:15:17.971Z,13.65
2023-04-15T10:22:41.714Z,13.55
2023-04-15T10:25:37.909Z,13.49
2023-04-15T10:28:32.791Z,13.50
2023-04-15T10:31:03.232Z,13.41
2023-04-15T10:34:23.439Z,13.46
2023-04-15T10:36:58.592Z,13.32
2023-04-15T10:39:47.290Z,13.21
2023-04-15T10:43:32.162Z,13.15
2023-04-15T10:46:00.648Z,13.18
2023-04-15T10:49:07.018Z,13.19
2023-04-15T10:51:41.957Z,13.26
2023-04-15T10:54:30.598Z,13.14
2023-04-15T10:57:02.917Z,13.07
2023-04-15T10:59:39.127Z,13.02
2023-04-15T11:02:08.727Z,13.01
2023-04-15T11:05:01.096Z,12.93
2023-04-15T11:07:56.313Z,13.03
2023-04-15T11:10:31.536Z,12.96
2023-04-15T11:13:16.344Z,13.05
2023-04-15T11:15:45.998Z,13.08
2023-04-15T11:18:24.266Z,13.20
2023-04-15T11:20:57.734Z,13.39
2023-04-15T11:23:41.037Z,13.42
2023-04-15T11:26:12.460Z,13.65
2023-04-15T11:28:43.420Z,13.66
2023-04-15T11:31:18.371Z,13.71
2023-04-15T11:34:37.705Z,13.76
2023-04-15T11:37:08.111Z,13.94
2023-04-15T11:39:37.873Z,14.25
2023-04-15T11:42:17.640Z,14.47
2023-04-15T11:44:46.523Z,14.66
2023-04-15T11:47:25.354Z,14.87
2023-04-15T11:49:54.014Z,15.01
2023-04-15T11:57:32.011Z,15.41
2023-04-15T12:00:00.737Z,15.23
2023-04-15T12:02:33.512Z,15.38
2023-04-15T12:10:12.984Z,15.63
2023-04-15T12:12:41.797Z,15.72
2023-04-15T12:19:57.461Z,15.83
2023-04-15T12:26:54.461Z,15.98
2023-04-15T12:34:10.044Z,16.30
2023-04-15T12:36:38.578Z,16.38
2023-04-15T12:39:07.250Z,16.34
2023-04-15T12:41:35.959Z,16.46
2023-04-15T12:44:10.145Z,16.50
2023-04-15T12:47:03.886Z,16.44
2023-04-15T12:49:33.123Z,16.64
2023-04-15T12:52:03.560Z,16.80
2023-04-15T13:00:19.062Z,17.04
2023-04-15T13:02:48.209Z,16.92
2023-04-15T13:05:17.667Z,16.69
2023-04-15T13:07:46.652Z,16.73
2023-04-15T13:10:15.249Z,16.75
2023-04-15T13:12:43.826Z,16.94
2023-04-15T13:15:13.536Z,17.03
2023-04-15T13:17:42.138Z,17.16
2023-04-15T13:20:11.114Z,17.37
2023-04-15T13:22:39.714Z,17.40
2023-04-15T13:25:09.451Z,17.49
2023-04-15T13:27:37.733Z,17.76
2023-04-15T13:30:07.798Z,17.85
2023-04-15T13:32:36.417Z,17.97
2023-04-15T13:35:06.018Z,18.10
2023-04-15T13:37:34.487Z,18.31
2023-04-15T13:40:03.465Z,18.20
2023-04-15T13:42:31.926Z,18.37
2023-04-15T13:45:01.752Z,18.29
2023-04-15T13:47:30.171Z,18.31
2023-04-15T13:49:59.078Z,18.35
2023-04-15T13:52:27.907Z,18.37
2023-04-15T13:55:08.303Z,18.44
2023-04-15T13:57:46.027Z,18.25
2023-04-15T14:00:15.936Z,18.43
2023-04-15T14:03:38.411Z,18.41
2023-04-15T14:06:50.162Z,18.27
2023-04-15T14:09:18.611Z,18.36
2023-04-15T14:11:47.497Z,18.54
2023-04-15T14:14:16.361Z,18.49
2023-04-15T14:16:44.988Z,18.60
2023-04-15T14:19:34.088Z,18.65
2023-04-15T14:22:03.735Z,18.49
2023-04-15T14:24:32.133Z,18.28
2023-04-15T14:27:00.596Z,18.17
2023-04-15T14:29:29.623Z,18.32
2023-04-15T14:32:11.209Z,18.53
2023-04-15T14:34:41.299Z,18.72
2023-04-15T14:37:37.943Z,18.95
2023-04-15T14:40:32.228Z,19.01
2023-04-15T14:43:01.029Z,19.06
2023-04-15T14:45:30.858Z,18.97
2023-04-15T14:48:00.614Z,19.05
2023-04-15T14:50:31.250Z,18.94
2023-04-15T14:53:01.102Z,18.92
2023-04-15T14:55:29.702Z,18.69
2023-04-15T14:57:58.502Z,18.57
2023-04-15T15:00:27.257Z,18.42
2023-04-15T15:02:56.788Z,18.20
2023-04-15T15:05:26.037Z,18.02
2023-04-15T15:07:55.265Z,17.77
2023-04-15T15:10:46.679Z,17.70
2023-04-15T15:13:19.470Z,17.56
2023-04-15T15:15:52.196Z,17.38
2023-04-15T15:18:21.678Z,17.19
2023-04-15T15:20:51.439Z,16.98
2023-04-15T15:23:21.873Z,16.79
2023-04-15T15:25:50.486Z,16.77
2023-04-15T15:28:19.055Z,16.60
2023-04-15T15:30:48.246Z,16.49
2023-04-15T15:33:18.123Z,16.45
2023-04-15T15:35:47.480Z,16.32
2023-04-15T15:38:16.553Z,16.24
2023-04-15T15:40:45.369Z,16.13
2023-04-15T15:43:14.075Z,16.04
2023-04-15T15:45:42.828Z,16.00
2023-04-15T15:48:39.043Z,15.88
2023-04-15T15:51:08.036Z,15.76
2023-04-15T15:54:02.462Z,15.70
2023-04-15T15:56:31.243Z,15.53
2023-04-15T15:59:01.712Z,15.45
2023-04-15T16:01:30.525Z,15.45
2023-04-15T16:03:59.999Z,15.34
2023-04-15T16:06:29.127Z,15.28
2023-04-15T16:08:57.759Z,15.27
2023-04-15T16:11:26.646Z,15.20
2023-04-15T16:13:55.689Z,15.21
2023-04-15T16:16:24.551Z,15.07
2023-04-15T16:18:53.066Z,15.05
2023-04-15T16:21:21.956Z,15.01
2023-04-15T16:23:51.778Z,14.92
2023-04-15T16:26:20.963Z,14.80
2023-04-15T16:28:51.633Z,14.66
2023-04-15T16:31:20.399Z,14.58
2023-04-15T16:33:50.917Z,14.47
2023-04-15T16:36:21.134Z,14.40
2023-04-15T16:38:49.514Z,14.36
2023-04-15T16:41:19.146Z,14.28
2023-04-15T16:43:47.851Z,14.17
2023-04-15T16:47:16.623Z,14.07
2023-04-15T16:50:38.283Z,13.98
2023-04-15T16:53:10.049Z,13.85
2023-04-15T16:55:40.415Z,13.81
2023-04-15T16:58:09.299Z,13.74
2023-04-15T17:00:37.807Z,13.68
2023-04-15T17:03:21.396Z,13.63
2023-04-15T17:05:50.039Z,13.52
2023-04-15T17:08:18.999Z,13.54
2023-04-15T17:10:47.684Z,13.47
2023-04-15T17:13:16.485Z,13.41
2023-04-15T17:15:45.116Z,13.35
2023-04-15T17:18:14.143Z,13.30
2023-04-15T17:21:10.623Z,13.19
2023-04-15T17:23:57.057Z,13.13
2023-04-15T17:26:53.421Z,13.04
2023-04-15T17:29:42.975Z,12.94
2023-04-15T17:32:17.200Z,12.89
2023-04-15T17:34:49.769Z,12.85
2023-04-15T17:37:19.802Z,12.78
2023-04-15T17:39:48.385Z,12.78
2023-04-15T17:42:17.866Z,12.74
2023-04-15T17:44:48.912Z,12.73
2023-04-15T17:47:18.416Z,12.69
2023-04-15T17:50:12.211Z,12.66
2023-04-15T17:52:40.721Z,12.60
2023-04-15T17:55:55.973Z,12.54
2023-04-15T17:59:13.604Z,12.51
2023-04-15T18:02:09.770Z,12.49
2023-04-15T18:04:51.588Z,12.44
2023-04-15T18:07:20.421Z,12.42
2023-04-15T18:10:23.785Z,12.38
2023-04-15T18:13:43.763Z,12.33
2023-04-15T18:16:17.340Z,12.30
2023-04-15T18:19:32.167Z,12.28
2023-04-15T18:22:07.312Z,12.21
2023-04-15T18:25:19.478Z,12.21
2023-04-15T18:28:38.573Z,12.13
2023-04-15T18:31:09.569Z,12.09
2023-04-15T18:34:23.846Z,12.07
2023-04-15T18:37:39.088Z,11.98
2023-04-15T18:40:55.670Z,11.96
2023-04-15T18:43:24.447Z,11.91
2023-04-15T18:45:57.384Z,11.88
2023-04-15T18:48:28.173Z,11.84
2023-04-15T18:51:01.985Z,11.81
2023-04-15T18:53:31.486Z,11.75
2023-04-15T18:56:25.561Z,11.73
2023-04-15T18:59:25.737Z,11.66
2023-04-15T19:01:42.904Z,11.62
2023-04-15T19:04:36.402Z,11.58
2023-04-15T19:07:05.752Z,11.54
2023-04-15T19:09:59.659Z,11.52
2023-04-15T19:12:30.804Z,11.48
2023-04-15T19:15:01.843Z,11.47
2023-04-15T19:17:30.460Z,11.48
2023-04-15T19:19:59.198Z,11.44
2023-04-15T19:22:41.329Z,11.43
2023-04-15T19:25:10.107Z,11.43
2023-04-15T19:27:38.771Z,11.39
2023-04-15T19:30:08.481Z,11.39
2023-04-15T19:33:26.747Z,11.36
2023-04-15T19:35:55.419Z,11.24
2023-04-15T19:38:27.895Z,11.20
2023-04-15T19:41:40.046Z,11.12
2023-04-15T19:44:16.877Z,11.03
2023-04-15T19:47:25.994Z,10.98
2023-04-15T19:49:54.592Z,10.91
2023-04-15T19:52:23.392Z,10.87
2023-04-15T19:54:51.900Z,10.83
2023-04-15T19:57:22.494Z,10.79
2023-04-15T20:00:00.299Z,10.77
2023-04-15T20:02:32.893Z,10.76
2023-04-15T20:05:10.361Z,10.75
2023-04-15T20:07:42.794Z,10.72
2023-04-15T20:10:13.674Z,10.68
2023-04-15T20:13:53.335Z,10.64
2023-04-15T20:16:23.139Z,10.59
2023-04-15T20:19:34.827Z,10.55
2023-04-15T20:22:07.345Z,10.50
2023-04-15T20:25:20.026Z,10.48
2023-04-15T20:27:54.127Z,10.42
2023-04-15T20:30:22.710Z,10.43
2023-04-15T20:33:18.122Z,10.42
2023-04-15T20:35:46.714Z,10.37
2023-04-15T20:38:16.654Z,10.36
2023-04-15T20:40:45.308Z,10.34
2023-04-15T20:43:13.946Z,10.34
2023-04-15T20:45:42.393Z,10.31
2023-04-15T20:48:36.367Z,10.29
2023-04-15T20:51:05.064Z,10.29
2023-04-15T20:53:33.718Z,10.28
2023-04-15T20:56:02.304Z,10.29
2023-04-15T20:58:30.682Z,10.29
2023-04-15T21:00:59.339Z,10.29
2023-04-15T21:03:28.322Z,10.31
2023-04-15T21:05:57.051Z,10.35
2023-04-15T21:08:29.799Z,10.33
2023-04-15T21:10:58.381Z,10.33
2023-04-15T21:13:27.223Z,10.27
2023-04-15T21:15:55.935Z,10.21
2023-04-15T21:18:24.591Z,10.18
2023-04-15T21:21:01.028Z,10.13
2023-04-15T21:23:30.240Z,10.08
2023-04-15T21:25:59.353Z,10.04
2023-04-15T21:28:28.621Z,10.01
2023-04-15T21:30:58.140Z,9.97
2023-04-15T21:33:27.331Z,9.96
2023-04-15T21:35:57.775Z,9.95
2023-04-15T21:38:26.135Z,9.93
2023-04-15T21:40:55.355Z,9.92
2023-04-15T21:43:49.433Z,9.90
2023-04-15T21:46:25.437Z,9.91
2023-04-15T21:49:07.333Z,9.89
2023-04-15T21:51:46.488Z,9.86
2023-04-15T21:54:16.217Z,9.79
2023-04-15T21:56:46.459Z,9.75
2023-04-15T21:59:15.463Z,9.72
2023-04-15T22:01:43.846Z,9.69
2023-04-15T22:04:15.691Z,9.67
2023-04-15T22:06:47.344Z,9.61
2023-04-15T22:09:23.785Z,9.59
2023-04-15T22:11:54.116Z,9.54
2023-04-15T22:14:22.933Z,9.51
2023-04-15T22:16:54.070Z,9.44
2023-04-15T22:19:23.552Z,9.41
2023-04-15T22:21:58.914Z,9.36
2023-04-15T22:24:39.973Z,9.33
2023-04-15T22:27:09.177Z,9.31
2023-04-15T22:29:37.647Z,9.34
2023-04-15T22:32:08.173Z,9.35
2023-04-15T22:34:38.692Z,9.33
2023-04-15T22:37:40.674Z,9.29
2023-04-15T22:40:11.593Z,9.25
2023-04-15T22:43:33.638Z,9.23
2023-04-15T22:46:47.793Z,9.19
2023-04-15T22:49:18.021Z,9.15
2023-04-15T22:52:33.862Z,9.17
2023-04-15T22:56:27.108Z,9.20
2023-04-15T22:59:07.059Z,9.16
2023-04-15T23:01:36.410Z,9.10
2023-04-15T23:04:25.637Z,9.06
2023-04-15T23:07:03.494Z,9.01
2023-04-15T23:09:32.607Z,8.99
2023-04-15T23:12:12.274Z,8.94
2023-04-15T23:15:07.060Z,8.91
2023-04-15T23:18:16.776Z,8.89
2023-04-15T23:21:36.688Z,8.87
2023-04-15T23:25:01.275Z,8.85
2023-04-15T23:29:46.496Z,8.82
2023-04-15T23:33:21.358Z,8.76
2023-04-15T23:36:27.349Z,8.71
2023-04-15T23:42:28.490Z,8.70
2023-04-15T23:44:57.923Z,8.65
2023-04-15T23:47:26.537Z,8.63
2023-04-15T23:50:04.610Z,8.60
2023-04-15T23:52:50.730Z,8.56
2023-04-15T23:55:57.680Z,8.56
2023-04-15T23:58:27.508Z,8.53
